EWG1UH EKCH-EDDL
Flight info
| Callsign | EWG1UH |
|---|---|
| Flight time | N/A |
| Altitude | 38000 |
| Route | NEXEN T503 GIMRU DCT MICOS DCT KEGAB DCT DENOL/N0372F260 T851 HALME HALME1A |
| Aircraft | A320/M-SDE3FGHIRWY/LB1 |
Departure
| Time | N/A |
|---|---|
| Airport | Copenhagen Kastrup Airport (EKCH) |
Arrival
| Time | 2026-05-04 18:53 |
|---|---|
| Airport | Düsseldorf Airport (EDDL) |
| Time | Latitude | Longitude | Altitude | Speed | Heading |
|---|---|---|---|---|---|
| 2026-05-04 18:00 | 55.03998 | 11.90537 | 21865 ft | 394 kts | 219° |
| 2026-05-04 18:00 | 55.01737 | 11.87760 | 22399 ft | 397 kts | 219° |
| 2026-05-04 18:01 | 54.99475 | 11.84985 | 22922 ft | 399 kts | 219° |
| 2026-05-04 18:01 | 54.97198 | 11.82193 | 23433 ft | 401 kts | 219° |
| 2026-05-04 18:01 | 54.94909 | 11.79385 | 23872 ft | 404 kts | 219° |
| 2026-05-04 18:02 | 54.90306 | 11.73751 | 24761 ft | 405 kts | 219° |
| 2026-05-04 18:02 | 54.88016 | 11.70898 | 25214 ft | 404 kts | 224° |
| 2026-05-04 18:02 | 54.86171 | 11.67312 | 25646 ft | 397 kts | 241° |
| 2026-05-04 18:02 | 54.85121 | 11.62938 | 26071 ft | 394 kts | 258° |
| 2026-05-04 18:03 | 54.84782 | 11.58213 | 26485 ft | 395 kts | 264° |
| 2026-05-04 18:03 | 54.84571 | 11.53535 | 26886 ft | 395 kts | 265° |
| 2026-05-04 18:03 | 54.84366 | 11.48774 | 27279 ft | 396 kts | 265° |
| 2026-05-04 18:03 | 54.84162 | 11.43969 | 27675 ft | 398 kts | 265° |
| 2026-05-04 18:04 | 54.83777 | 11.39244 | 27936 ft | 398 kts | 255° |
| 2026-05-04 18:04 | 54.82649 | 11.34875 | 27975 ft | 400 kts | 239° |
| 2026-05-04 18:04 | 54.78276 | 11.28792 | 28434 ft | 423 kts | 208° |
| 2026-05-04 18:05 | 54.75490 | 11.27047 | 28796 ft | 426 kts | 206° |
| 2026-05-04 18:05 | 54.72677 | 11.25353 | 29183 ft | 426 kts | 206° |
| 2026-05-04 18:05 | 54.69884 | 11.23699 | 29721 ft | 424 kts | 206° |
| 2026-05-04 18:05 | 54.67107 | 11.22068 | 30246 ft | 420 kts | 206° |
| 2026-05-04 18:06 | 54.61592 | 11.18827 | 31044 ft | 418 kts | 206° |
| 2026-05-04 18:06 | 54.58841 | 11.17201 | 31377 ft | 418 kts | 206° |
| 2026-05-04 18:06 | 54.56088 | 11.15552 | 31704 ft | 417 kts | 207° |
| 2026-05-04 18:07 | 54.53558 | 11.13281 | 31781 ft | 406 kts | 218° |
| 2026-05-04 18:07 | 54.51254 | 11.10619 | 31160 ft | 404 kts | 220° |
| 2026-05-04 18:07 | 54.48896 | 11.07830 | 31058 ft | 408 kts | 220° |
| 2026-05-04 18:07 | 54.46567 | 11.05070 | 31422 ft | 407 kts | 220° |
| 2026-05-04 18:08 | 54.44232 | 11.02297 | 31792 ft | 407 kts | 220° |
| 2026-05-04 18:08 | 54.41901 | 10.99522 | 32123 ft | 408 kts | 220° |
| 2026-05-04 18:08 | 54.39601 | 10.96780 | 32444 ft | 408 kts | 220° |
| 2026-05-04 18:08 | 54.37264 | 10.93992 | 32782 ft | 409 kts | 220° |
| 2026-05-04 18:09 | 54.32587 | 10.88415 | 33400 ft | 410 kts | 220° |
| 2026-05-04 18:09 | 54.27889 | 10.82821 | 33941 ft | 413 kts | 219° |
| 2026-05-04 18:10 | 54.23166 | 10.77211 | 33983 ft | 413 kts | 219° |
| 2026-05-04 18:10 | 54.18445 | 10.71613 | 33976 ft | 413 kts | 219° |
| 2026-05-04 18:11 | 54.13727 | 10.66032 | 33985 ft | 413 kts | 219° |
| 2026-05-04 18:11 | 54.08998 | 10.60451 | 33980 ft | 413 kts | 219° |
| 2026-05-04 18:12 | 54.04267 | 10.54879 | 33979 ft | 413 kts | 219° |
| 2026-05-04 18:12 | 53.99535 | 10.49315 | 33969 ft | 414 kts | 219° |
| 2026-05-04 18:13 | 53.94833 | 10.43796 | 33973 ft | 414 kts | 219° |
| 2026-05-04 18:14 | 53.87726 | 10.35471 | 33964 ft | 414 kts | 219° |
| 2026-05-04 18:14 | 53.82980 | 10.29922 | 33963 ft | 414 kts | 219° |
| 2026-05-04 18:15 | 53.73503 | 10.18851 | 33962 ft | 414 kts | 219° |
| 2026-05-04 18:16 | 53.68771 | 10.13327 | 33960 ft | 414 kts | 219° |
| 2026-05-04 18:16 | 53.64041 | 10.07809 | 33961 ft | 414 kts | 219° |
| 2026-05-04 18:17 | 53.56946 | 9.99530 | 33964 ft | 413 kts | 219° |
| 2026-05-04 18:18 | 53.49864 | 9.91255 | 34000 ft | 413 kts | 219° |
| 2026-05-04 18:18 | 53.45168 | 9.85752 | 34005 ft | 412 kts | 219° |
| 2026-05-04 18:19 | 53.37479 | 9.78985 | 34001 ft | 416 kts | 211° |
| 2026-05-04 18:19 | 53.32301 | 9.74687 | 33999 ft | 415 kts | 211° |
| 2026-05-04 18:20 | 53.27127 | 9.70401 | 33990 ft | 414 kts | 211° |
| 2026-05-04 18:20 | 53.21961 | 9.66132 | 33987 ft | 414 kts | 211° |
| 2026-05-04 18:21 | 53.16840 | 9.61914 | 33979 ft | 413 kts | 211° |
| 2026-05-04 18:21 | 53.11704 | 9.57684 | 33977 ft | 412 kts | 211° |
| 2026-05-04 18:22 | 53.06593 | 9.53505 | 33962 ft | 404 kts | 211° |
| 2026-05-04 18:22 | 53.01546 | 9.49386 | 33960 ft | 404 kts | 211° |
| 2026-05-04 18:23 | 52.96508 | 9.45274 | 33960 ft | 404 kts | 210° |
| 2026-05-04 18:23 | 52.91469 | 9.41170 | 33960 ft | 403 kts | 210° |
| 2026-05-04 18:24 | 52.86430 | 9.37082 | 33958 ft | 403 kts | 210° |
| 2026-05-04 18:24 | 52.81393 | 9.33013 | 33955 ft | 403 kts | 210° |
| 2026-05-04 18:25 | 52.76357 | 9.28951 | 33950 ft | 403 kts | 210° |
| 2026-05-04 18:25 | 52.71323 | 9.24889 | 33945 ft | 402 kts | 210° |
| 2026-05-04 18:26 | 52.66293 | 9.20846 | 33942 ft | 402 kts | 210° |
| 2026-05-04 18:26 | 52.61283 | 9.16833 | 33942 ft | 402 kts | 210° |
| 2026-05-04 18:27 | 52.56246 | 9.12820 | 33941 ft | 402 kts | 209° |
| 2026-05-04 18:27 | 52.51209 | 9.08810 | 33941 ft | 402 kts | 209° |
| 2026-05-04 18:28 | 52.46173 | 9.04796 | 33958 ft | 402 kts | 209° |
| 2026-05-04 18:28 | 52.41138 | 9.00802 | 33964 ft | 402 kts | 209° |
| 2026-05-04 18:29 | 52.38604 | 8.98799 | 33579 ft | 404 kts | 209° |
| 2026-05-04 18:29 | 52.36079 | 8.96805 | 32897 ft | 404 kts | 209° |
| 2026-05-04 18:29 | 52.33575 | 8.94830 | 32237 ft | 405 kts | 209° |
| 2026-05-04 18:29 | 52.31018 | 8.92815 | 31580 ft | 407 kts | 208° |
| 2026-05-04 18:30 | 52.25930 | 8.88811 | 30318 ft | 402 kts | 208° |
| 2026-05-04 18:30 | 52.23418 | 8.86842 | 29653 ft | 398 kts | 208° |
| 2026-05-04 18:30 | 52.20936 | 8.84896 | 28941 ft | 395 kts | 208° |
| 2026-05-04 18:31 | 52.19299 | 8.83614 | 28511 ft | 393 kts | 208° |
| 2026-05-04 18:31 | 52.16034 | 8.81063 | 27785 ft | 386 kts | 208° |
| 2026-05-04 18:31 | 52.14426 | 8.79810 | 27432 ft | 384 kts | 208° |
| 2026-05-04 18:31 | 52.12026 | 8.77939 | 26905 ft | 381 kts | 208° |
| 2026-05-04 18:32 | 52.09745 | 8.75814 | 26390 ft | 376 kts | 219° |
| 2026-05-04 18:32 | 52.07954 | 8.72775 | 25893 ft | 373 kts | 235° |
| 2026-05-04 18:32 | 52.06795 | 8.69019 | 25401 ft | 373 kts | 247° |
| 2026-05-04 18:32 | 52.05870 | 8.65082 | 24968 ft | 373 kts | 247° |
| 2026-05-04 18:33 | 52.04951 | 8.61158 | 24522 ft | 372 kts | 247° |
| 2026-05-04 18:33 | 52.04028 | 8.57219 | 24109 ft | 371 kts | 247° |
| 2026-05-04 18:33 | 52.03106 | 8.53306 | 23688 ft | 370 kts | 247° |
| 2026-05-04 18:33 | 52.02183 | 8.49407 | 23225 ft | 369 kts | 247° |
| 2026-05-04 18:34 | 52.01260 | 8.45527 | 22731 ft | 368 kts | 247° |
| 2026-05-04 18:34 | 52.00340 | 8.41656 | 22253 ft | 366 kts | 247° |
| 2026-05-04 18:34 | 51.99426 | 8.37812 | 21785 ft | 364 kts | 247° |
| 2026-05-04 18:34 | 51.98528 | 8.34044 | 21294 ft | 363 kts | 247° |
| 2026-05-04 18:35 | 51.97614 | 8.30229 | 20853 ft | 361 kts | 247° |
| 2026-05-04 18:35 | 51.96701 | 8.26438 | 20399 ft | 360 kts | 247° |
| 2026-05-04 18:35 | 51.95794 | 8.22668 | 19953 ft | 358 kts | 247° |
| 2026-05-04 18:35 | 51.94891 | 8.18912 | 19509 ft | 357 kts | 247° |
| 2026-05-04 18:36 | 51.93990 | 8.15172 | 19082 ft | 356 kts | 247° |
| 2026-05-04 18:36 | 51.93094 | 8.11461 | 18659 ft | 354 kts | 247° |
| 2026-05-04 18:36 | 51.92194 | 8.07745 | 18227 ft | 353 kts | 247° |
| 2026-05-04 18:36 | 51.91299 | 8.04046 | 17746 ft | 352 kts | 247° |
| 2026-05-04 18:37 | 51.90407 | 8.00367 | 17328 ft | 350 kts | 247° |
| 2026-05-04 18:37 | 51.89515 | 7.96701 | 16929 ft | 349 kts | 247° |
| 2026-05-04 18:37 | 51.88627 | 7.93055 | 16539 ft | 348 kts | 247° |
| 2026-05-04 18:37 | 51.87742 | 7.89432 | 16165 ft | 346 kts | 247° |
| 2026-05-04 18:38 | 51.86855 | 7.85810 | 15779 ft | 345 kts | 247° |
| 2026-05-04 18:38 | 51.85973 | 7.82218 | 15409 ft | 343 kts | 247° |
| 2026-05-04 18:38 | 51.85096 | 7.78639 | 15037 ft | 342 kts | 247° |
| 2026-05-04 18:38 | 51.84218 | 7.75057 | 14671 ft | 340 kts | 247° |
| 2026-05-04 18:39 | 51.83358 | 7.71565 | 14517 ft | 329 kts | 247° |
| 2026-05-04 18:39 | 51.82527 | 7.68190 | 14394 ft | 318 kts | 247° |
| 2026-05-04 18:39 | 51.81723 | 7.64913 | 14268 ft | 308 kts | 247° |
| 2026-05-04 18:39 | 51.80937 | 7.61718 | 14064 ft | 304 kts | 247° |
| 2026-05-04 18:40 | 51.80156 | 7.58556 | 13967 ft | 303 kts | 247° |
| 2026-05-04 18:40 | 51.79377 | 7.55407 | 13786 ft | 301 kts | 247° |
| 2026-05-04 18:40 | 51.78596 | 7.52274 | 13409 ft | 300 kts | 247° |
| 2026-05-04 18:40 | 51.77819 | 7.49150 | 13045 ft | 299 kts | 247° |
| 2026-05-04 18:41 | 51.77062 | 7.46079 | 12689 ft | 298 kts | 247° |
| 2026-05-04 18:41 | 51.76299 | 7.42987 | 12331 ft | 296 kts | 247° |
| 2026-05-04 18:41 | 51.75537 | 7.39900 | 11976 ft | 295 kts | 247° |
| 2026-05-04 18:41 | 51.74782 | 7.36833 | 11621 ft | 294 kts | 248° |
| 2026-05-04 18:42 | 51.74031 | 7.33785 | 11270 ft | 292 kts | 248° |
| 2026-05-04 18:42 | 51.73285 | 7.30763 | 11069 ft | 285 kts | 248° |
| 2026-05-04 18:42 | 51.72560 | 7.27834 | 10939 ft | 276 kts | 247° |
| 2026-05-04 18:42 | 51.71859 | 7.25014 | 10818 ft | 267 kts | 247° |
| 2026-05-04 18:43 | 51.71182 | 7.22288 | 10675 ft | 259 kts | 247° |
| 2026-05-04 18:43 | 51.70516 | 7.19609 | 10424 ft | 256 kts | 247° |
| 2026-05-04 18:43 | 51.69854 | 7.16951 | 10154 ft | 255 kts | 247° |
| 2026-05-04 18:43 | 51.69178 | 7.14314 | 9850 ft | 253 kts | 243° |
| 2026-05-04 18:44 | 51.68274 | 7.11906 | 9530 ft | 252 kts | 232° |
| 2026-05-04 18:44 | 51.67574 | 7.10426 | 9313 ft | 251 kts | 232° |
| 2026-05-04 18:44 | 51.66179 | 7.07461 | 8879 ft | 249 kts | 232° |
| 2026-05-04 18:44 | 51.65138 | 7.05242 | 8548 ft | 247 kts | 232° |
| 2026-05-04 18:45 | 51.64093 | 7.03070 | 8230 ft | 245 kts | 226° |
| 2026-05-04 18:45 | 51.62675 | 7.01584 | 7900 ft | 241 kts | 199° |
| 2026-05-04 18:45 | 51.61082 | 7.00917 | 7562 ft | 239 kts | 185° |
| 2026-05-04 18:45 | 51.59458 | 7.01273 | 7240 ft | 237 kts | 159° |
| 2026-05-04 18:46 | 51.57961 | 7.02378 | 6897 ft | 237 kts | 154° |
| 2026-05-04 18:46 | 51.56492 | 7.03593 | 6553 ft | 236 kts | 154° |
| 2026-05-04 18:46 | 51.55030 | 7.04766 | 6244 ft | 233 kts | 162° |
| 2026-05-04 18:46 | 51.53454 | 7.05101 | 5910 ft | 230 kts | 181° |
| 2026-05-04 18:47 | 51.51870 | 7.05029 | 5565 ft | 229 kts | 183° |
| 2026-05-04 18:47 | 51.50276 | 7.04913 | 5226 ft | 228 kts | 183° |
| 2026-05-04 18:47 | 51.48698 | 7.04799 | 4895 ft | 227 kts | 184° |
| 2026-05-04 18:47 | 51.47127 | 7.04535 | 4559 ft | 225 kts | 196° |
| 2026-05-04 18:48 | 51.45656 | 7.03683 | 4204 ft | 224 kts | 202° |
| 2026-05-04 18:48 | 51.44221 | 7.02707 | 3859 ft | 224 kts | 203° |
| 2026-05-04 18:48 | 51.42806 | 7.01722 | 3522 ft | 224 kts | 203° |
| 2026-05-04 18:48 | 51.41365 | 7.00708 | 3187 ft | 224 kts | 203° |
| 2026-05-04 18:49 | 51.40052 | 6.99428 | 3000 ft | 223 kts | 225° |
| 2026-05-04 18:49 | 51.39078 | 6.97469 | 3007 ft | 226 kts | 232° |
| 2026-05-04 18:49 | 51.38142 | 6.95474 | 2867 ft | 221 kts | 232° |
| 2026-05-04 18:49 | 51.37222 | 6.93524 | 2614 ft | 219 kts | 232° |
| 2026-05-04 18:50 | 51.36307 | 6.91590 | 2324 ft | 216 kts | 232° |
| 2026-05-04 18:50 | 51.35438 | 6.89753 | 2040 ft | 198 kts | 231° |
| 2026-05-04 18:50 | 51.34639 | 6.88065 | 1782 ft | 183 kts | 231° |
| 2026-05-04 18:50 | 51.33889 | 6.86484 | 1560 ft | 176 kts | 231° |
| 2026-05-04 18:51 | 51.33177 | 6.84985 | 1349 ft | 160 kts | 231° |
| 2026-05-04 18:51 | 51.32539 | 6.83639 | 1110 ft | 144 kts | 231° |
| 2026-05-04 18:51 | 51.31948 | 6.82395 | 916 ft | 137 kts | 230° |
| 2026-05-04 18:51 | 51.31376 | 6.81193 | 732 ft | 134 kts | 230° |
| 2026-05-04 18:52 | 51.30815 | 6.80011 | 553 ft | 132 kts | 231° |
| 2026-05-04 18:52 | 51.30268 | 6.78843 | 357 ft | 132 kts | 231° |
| 2026-05-04 18:52 | 51.29713 | 6.77678 | 169 ft | 131 kts | 229° |
| 2026-05-04 18:52 | 51.29197 | 6.76609 | 132 ft | 103 kts | 232° |
| 2026-05-04 18:53 | 51.28867 | 6.75918 | 125 ft | 53 kts | 231° |
| 2026-05-04 18:53 | 51.28720 | 6.75716 | 126 ft | 22 kts | 206° |
| 2026-05-04 18:53 | 51.28624 | 6.75676 | 121 ft | 10 kts | 179° |
| 2026-05-04 18:53 | 51.28561 | 6.75690 | 123 ft | 8 kts | 164° |
| 2026-05-04 18:54 | 51.28486 | 6.75749 | 120 ft | 16 kts | 144° |
| 2026-05-04 18:54 | 51.28414 | 6.75833 | 123 ft | 7 kts | 142° |
| 2026-05-04 18:54 | 51.28403 | 6.75847 | 124 ft | 0 kts | 143° |
| 2026-05-04 18:56 | 51.28390 | 6.75862 | 124 ft | 6 kts | 143° |
| 2026-05-04 18:56 | 51.28333 | 6.75932 | 127 ft | 13 kts | 143° |
| 2026-05-04 18:57 | 51.28256 | 6.76021 | 125 ft | 10 kts | 146° |
| 2026-05-04 18:57 | 51.28225 | 6.76053 | 125 ft | 0 kts | 147° |
| 2026-05-04 18:58 | 51.28221 | 6.76056 | 125 ft | 3 kts | 147° |
| 2026-05-04 18:58 | 51.28193 | 6.76108 | 124 ft | 12 kts | 110° |
| 2026-05-04 18:59 | 51.28169 | 6.76255 | 123 ft | 7 kts | 131° |
| 2026-05-04 18:59 | 51.28141 | 6.76322 | 124 ft | 11 kts | 118° |
| 2026-05-04 18:59 | 51.28110 | 6.76391 | 128 ft | 5 kts | 149° |
| 2026-05-04 18:59 | 51.28081 | 6.76387 | 128 ft | 6 kts | 193° |
| 2026-05-04 19:00 | 51.28048 | 6.76371 | 124 ft | 0 kts | 195° |
| 2026-05-04 19:00 | 51.28041 | 6.76368 | 126 ft | 0 kts | 196° |